createdAt,value
2018-12-27T00:00:19.431Z,84.59
2018-12-27T00:02:30.345Z,84.62
2018-12-27T00:04:41.283Z,84.59
2018-12-27T00:06:52.206Z,84.68
2018-12-27T00:09:44.798Z,84.71
2018-12-27T00:11:55.761Z,84.63
2018-12-27T00:14:06.677Z,84.38
2018-12-27T00:16:17.619Z,84.20
2018-12-27T00:18:28.525Z,84.11
2018-12-27T00:20:39.479Z,84.05
2018-12-27T00:22:50.386Z,84.19
2018-12-27T00:25:01.557Z,84.23
2018-12-27T00:27:12.509Z,84.26
2018-12-27T00:29:23.433Z,84.39
2018-12-27T00:31:34.383Z,84.45
2018-12-27T00:33:45.309Z,84.56
2018-12-27T00:35:56.264Z,84.56
2018-12-27T00:38:07.191Z,84.39
2018-12-27T00:40:18.149Z,84.27
2018-12-27T00:42:29.152Z,83.89
2018-12-27T00:44:40.081Z,83.66
2018-12-27T00:46:51.026Z,83.71
2018-12-27T00:49:01.941Z,83.83
2018-12-27T00:51:12.884Z,84.08
2018-12-27T00:53:23.811Z,84.09
2018-12-27T00:55:34.727Z,84.16
2018-12-27T00:57:45.693Z,84.17
2018-12-27T00:59:56.623Z,84.11
2018-12-27T01:02:07.587Z,84.05
2018-12-27T01:04:18.514Z,84.01
2018-12-27T01:06:29.558Z,83.89
2018-12-27T01:08:40.476Z,83.73
2018-12-27T01:10:51.410Z,83.19
2018-12-27T01:13:02.357Z,83.13
2018-12-27T01:15:13.297Z,83.11
2018-12-27T01:17:24.241Z,83.12
2018-12-27T01:19:35.185Z,83.07
2018-12-27T01:21:46.110Z,83.09
2018-12-27T01:23:57.049Z,82.95
2018-12-27T01:26:07.968Z,83.04
2018-12-27T01:28:18.900Z,83.04
2018-12-27T01:30:29.817Z,82.97
2018-12-27T01:32:40.759Z,82.85
2018-12-27T01:34:51.680Z,82.81
2018-12-27T01:37:02.599Z,82.78
2018-12-27T01:39:13.540Z,82.81
2018-12-27T01:41:24.465Z,82.82
2018-12-27T01:43:35.430Z,83.00
2018-12-27T01:45:46.361Z,82.90
2018-12-27T01:47:57.283Z,83.03
2018-12-27T01:50:08.219Z,83.09
2018-12-27T01:52:19.151Z,83.12
2018-12-27T01:54:30.093Z,83.22
2018-12-27T01:56:41.030Z,83.40
2018-12-27T01:58:51.994Z,83.47
2018-12-27T02:01:03.026Z,83.46
2018-12-27T02:03:13.965Z,83.45
2018-12-27T02:05:24.911Z,83.40
2018-12-27T02:07:35.864Z,83.42
2018-12-27T02:09:46.802Z,83.43
2018-12-27T02:11:57.742Z,83.40
2018-12-27T02:14:08.657Z,83.34
2018-12-27T02:16:19.595Z,83.15
2018-12-27T02:18:30.510Z,83.03
2018-12-27T02:20:41.448Z,83.16
2018-12-27T02:22:52.361Z,83.32
2018-12-27T02:25:03.281Z,83.27
2018-12-27T02:27:14.212Z,83.26
2018-12-27T02:29:25.133Z,83.36
2018-12-27T02:31:37.193Z,83.47
2018-12-27T02:33:48.953Z,83.53
2018-12-27T02:35:59.988Z,83.55
2018-12-27T02:38:10.912Z,83.58
2018-12-27T02:40:21.881Z,83.55
2018-12-27T02:42:32.813Z,83.57
2018-12-27T02:44:43.720Z,83.56
2018-12-27T02:46:54.659Z,83.43
2018-12-27T02:49:05.616Z,83.42
2018-12-27T02:51:16.533Z,83.46
2018-12-27T02:53:27.499Z,83.53
2018-12-27T02:55:38.410Z,83.44
2018-12-27T02:57:49.372Z,83.35
2018-12-27T03:00:00.324Z,83.17
2018-12-27T03:02:11.327Z,83.31
2018-12-27T03:04:22.269Z,83.45
2018-12-27T03:06:33.179Z,83.48
2018-12-27T03:08:44.230Z,83.47
2018-12-27T03:10:55.165Z,83.51
2018-12-27T03:13:06.090Z,83.44
2018-12-27T03:15:17.022Z,83.36
2018-12-27T03:17:27.950Z,83.30
2018-12-27T03:19:38.900Z,83.28
2018-12-27T03:21:49.815Z,83.38
2018-12-27T03:24:00.760Z,83.45
2018-12-27T03:26:11.681Z,83.42
2018-12-27T03:28:22.594Z,83.34
2018-12-27T03:30:33.549Z,83.24
2018-12-27T03:32:44.479Z,83.15
2018-12-27T03:34:55.424Z,83.09
2018-12-27T03:37:06.346Z,82.86
2018-12-27T03:39:17.287Z,82.85
2018-12-27T03:41:28.243Z,82.77
2018-12-27T03:43:39.179Z,83.00
2018-12-27T03:45:50.171Z,83.14
2018-12-27T03:48:01.087Z,83.24
2018-12-27T03:50:12.034Z,83.27
2018-12-27T03:52:22.948Z,83.39
2018-12-27T03:54:33.886Z,83.65
2018-12-27T03:56:44.841Z,83.72
2018-12-27T03:58:55.789Z,83.89
2018-12-27T04:01:06.787Z,83.98
2018-12-27T04:03:17.654Z,84.03
2018-12-27T04:05:28.609Z,84.00
2018-12-27T04:07:39.527Z,83.88
2018-12-27T04:09:50.461Z,83.84
2018-12-27T04:12:01.410Z,83.85
2018-12-27T04:14:12.329Z,83.90
2018-12-27T04:16:23.283Z,83.82
2018-12-27T04:18:34.242Z,83.69
2018-12-27T04:20:45.178Z,83.61
2018-12-27T04:22:56.102Z,83.30
2018-12-27T04:25:48.694Z,83.30
2018-12-27T04:27:59.629Z,83.25
2018-12-27T04:30:10.552Z,83.54
2018-12-27T04:33:03.121Z,83.50
2018-12-27T04:35:14.146Z,83.55
2018-12-27T04:37:25.092Z,83.62
2018-12-27T04:39:36.001Z,83.57
2018-12-27T04:42:28.615Z,83.61
2018-12-27T04:45:21.218Z,83.54
2018-12-27T04:47:32.126Z,83.56
2018-12-27T04:49:43.045Z,83.57
2018-12-27T04:51:53.985Z,83.57
2018-12-27T04:54:04.896Z,83.68
2018-12-27T04:56:15.827Z,83.57
2018-12-27T04:58:26.787Z,83.40
2018-12-27T05:00:37.710Z,83.31
2018-12-27T05:02:48.662Z,83.14
2018-12-27T05:04:59.582Z,83.15
2018-12-27T05:07:10.511Z,83.30
2018-12-27T05:09:21.456Z,83.34
2018-12-27T05:11:32.358Z,83.49
2018-12-27T05:13:43.366Z,83.42
2018-12-27T05:15:54.230Z,83.32
2018-12-27T05:18:05.173Z,83.27
2018-12-27T05:20:16.101Z,83.26
2018-12-27T05:22:27.019Z,83.23
2018-12-27T05:24:37.950Z,83.25
2018-12-27T05:26:48.880Z,83.26
2018-12-27T05:28:59.809Z,83.31
2018-12-27T05:31:10.790Z,83.25
2018-12-27T05:33:21.701Z,83.24
2018-12-27T05:35:32.669Z,83.29
2018-12-27T05:37:43.587Z,83.18
2018-12-27T05:39:54.519Z,83.15
2018-12-27T05:42:05.439Z,83.17
2018-12-27T05:44:16.364Z,83.20
2018-12-27T05:46:27.284Z,83.20
2018-12-27T05:48:38.267Z,83.22
2018-12-27T05:50:49.212Z,83.22
2018-12-27T05:53:00.138Z,83.03
2018-12-27T05:55:11.045Z,83.15
2018-12-27T05:57:22.007Z,83.33
2018-12-27T05:59:32.944Z,83.28
2018-12-27T06:01:43.858Z,83.27
2018-12-27T06:03:54.823Z,83.20
2018-12-27T06:06:05.805Z,83.08
2018-12-27T06:08:16.729Z,82.97
2018-12-27T06:10:27.666Z,82.98
2018-12-27T06:12:38.598Z,83.03
2018-12-27T06:14:49.517Z,83.10
2018-12-27T06:17:00.563Z,83.11
2018-12-27T06:19:11.490Z,83.45
2018-12-27T06:21:22.418Z,83.45
2018-12-27T06:23:33.337Z,83.32
2018-12-27T06:25:44.258Z,83.45
2018-12-27T06:27:55.200Z,83.54
2018-12-27T06:30:06.111Z,83.53
2018-12-27T06:32:17.065Z,83.63
2018-12-27T06:34:28.015Z,83.86
2018-12-27T06:36:38.939Z,83.85
2018-12-27T06:38:49.868Z,83.86
2018-12-27T06:41:00.800Z,83.66
2018-12-27T06:43:11.750Z,83.65
2018-12-27T06:45:22.675Z,83.66
2018-12-27T06:47:33.637Z,83.60
2018-12-27T06:49:44.581Z,83.39
2018-12-27T06:51:55.525Z,83.43
2018-12-27T06:54:06.436Z,83.56
2018-12-27T06:56:17.355Z,83.47
2018-12-27T06:58:28.312Z,83.52
2018-12-27T07:00:39.236Z,83.62
2018-12-27T07:02:50.181Z,83.57
2018-12-27T07:05:01.136Z,83.52
2018-12-27T07:07:12.080Z,83.55
2018-12-27T07:09:23.015Z,83.57
2018-12-27T07:11:33.930Z,83.68
2018-12-27T07:13:44.869Z,83.64
2018-12-27T07:15:55.783Z,83.62
2018-12-27T07:18:06.716Z,83.56
2018-12-27T07:20:17.641Z,83.49
2018-12-27T07:22:28.553Z,83.43
2018-12-27T07:24:39.499Z,83.32
2018-12-27T07:26:50.423Z,83.32
2018-12-27T07:29:01.359Z,83.25
2018-12-27T07:31:12.291Z,83.20
2018-12-27T07:33:23.309Z,83.07
2018-12-27T07:35:34.262Z,82.95
2018-12-27T07:37:45.191Z,82.91
2018-12-27T07:39:56.140Z,82.83
2018-12-27T07:42:07.184Z,82.72
2018-12-27T07:44:18.129Z,82.59
2018-12-27T07:46:29.063Z,82.30
2018-12-27T07:48:39.984Z,82.01
2018-12-27T07:50:50.940Z,81.69
2018-12-27T07:53:01.853Z,81.94
2018-12-27T07:55:12.800Z,82.00
2018-12-27T07:57:23.726Z,81.94
2018-12-27T07:59:34.662Z,82.08
2018-12-27T08:01:45.674Z,82.14
2018-12-27T08:03:56.610Z,82.09
2018-12-27T08:06:07.543Z,82.26
2018-12-27T08:08:18.459Z,82.43
2018-12-27T08:10:29.414Z,82.61
2018-12-27T08:12:40.353Z,82.59
2018-12-27T08:14:51.281Z,82.50
2018-12-27T08:17:02.226Z,82.39
2018-12-27T08:19:13.143Z,82.20
2018-12-27T08:21:24.090Z,81.92
2018-12-27T08:23:35.007Z,81.75
2018-12-27T08:25:45.933Z,81.67
2018-12-27T08:27:56.874Z,81.46
2018-12-27T08:30:07.908Z,80.61
2018-12-27T08:32:18.843Z,79.37
2018-12-27T08:34:29.764Z,78.53
2018-12-27T08:36:40.690Z,76.86
2018-12-27T08:38:51.628Z,76.17
2018-12-27T08:41:02.654Z,76.25
2018-12-27T08:43:13.654Z,76.09
2018-12-27T08:45:24.575Z,75.57
2018-12-27T08:47:35.507Z,75.51
2018-12-27T08:49:46.424Z,75.87
2018-12-27T08:51:57.369Z,76.04
2018-12-27T08:54:08.278Z,76.22
2018-12-27T08:56:19.201Z,76.29
2018-12-27T08:58:30.166Z,76.35
2018-12-27T09:00:41.093Z,76.49
2018-12-27T09:02:52.022Z,76.64
2018-12-27T09:07:55.297Z,77.36
2018-12-27T09:10:06.228Z,77.53
2018-12-27T09:12:17.154Z,77.40
2018-12-27T09:14:28.130Z,77.46
2018-12-27T09:16:39.037Z,77.65
2018-12-27T09:19:09.866Z,77.89
2018-12-27T09:21:20.791Z,77.89
2018-12-27T09:23:31.747Z,77.50
2018-12-27T09:25:42.661Z,77.25
2018-12-27T09:28:13.488Z,76.45
2018-12-27T09:30:24.449Z,76.45
2018-12-27T09:32:35.384Z,76.95
2018-12-27T09:34:46.367Z,76.63
2018-12-27T09:36:57.303Z,76.62
2018-12-27T09:39:08.235Z,76.58
2018-12-27T09:41:19.155Z,76.07
2018-12-27T09:43:30.073Z,75.81
2018-12-27T09:45:41.045Z,75.60
2018-12-27T09:47:51.975Z,75.61
2018-12-27T09:50:44.548Z,75.75
2018-12-27T09:52:55.484Z,75.86
2018-12-27T09:55:06.441Z,75.79
2018-12-27T09:57:17.373Z,75.99
2018-12-27T09:59:28.315Z,76.07
2018-12-27T10:01:39.265Z,76.14
2018-12-27T10:03:50.177Z,76.16
2018-12-27T10:06:01.145Z,76.16
2018-12-27T10:08:12.068Z,76.12
2018-12-27T10:10:23.027Z,76.06
2018-12-27T10:12:33.939Z,76.01
2018-12-27T10:14:44.849Z,75.54
2018-12-27T10:16:55.800Z,75.40
2018-12-27T10:19:06.704Z,75.08
2018-12-27T10:21:17.641Z,74.50
2018-12-27T10:23:28.690Z,74.40
2018-12-27T10:25:39.611Z,74.31
2018-12-27T10:27:50.554Z,74.17
2018-12-27T10:30:01.453Z,74.35
2018-12-27T10:32:12.397Z,74.53
2018-12-27T10:34:23.345Z,74.64
2018-12-27T10:36:34.254Z,74.80
2018-12-27T10:38:45.208Z,75.04
2018-12-27T10:40:56.129Z,74.93
2018-12-27T10:43:07.074Z,74.69
2018-12-27T10:45:18.006Z,74.85
2018-12-27T10:47:28.945Z,74.78
2018-12-27T10:49:39.845Z,74.45
2018-12-27T10:51:50.817Z,74.21
2018-12-27T10:54:01.781Z,74.39
2018-12-27T10:56:12.727Z,74.20
2018-12-27T10:58:23.688Z,74.46
2018-12-27T11:00:34.633Z,74.86
2018-12-27T11:02:45.574Z,75.10
2018-12-27T11:04:57.482Z,74.97
2018-12-27T11:07:09.314Z,74.09
2018-12-27T11:09:20.254Z,73.98
2018-12-27T11:11:31.280Z,73.19
2018-12-27T11:13:42.246Z,72.56
2018-12-27T11:15:53.173Z,72.17
2018-12-27T11:18:04.117Z,71.64
2018-12-27T11:20:15.145Z,71.44
2018-12-27T11:22:26.063Z,71.11
2018-12-27T11:24:37.031Z,69.69
2018-12-27T11:26:47.984Z,70.08
2018-12-27T11:28:58.915Z,70.11
2018-12-27T11:31:09.850Z,69.74
2018-12-27T11:33:20.887Z,69.60
2018-12-27T11:35:31.742Z,70.28
2018-12-27T11:37:42.817Z,70.92
2018-12-27T11:39:53.745Z,71.02
2018-12-27T11:42:04.812Z,71.14
2018-12-27T11:44:15.787Z,70.91
2018-12-27T11:46:26.718Z,71.08
2018-12-27T11:48:37.636Z,71.35
2018-12-27T11:50:48.575Z,70.93
2018-12-27T11:52:59.513Z,70.58
2018-12-27T11:55:10.461Z,71.16
2018-12-27T11:57:21.404Z,71.23
2018-12-27T11:59:32.370Z,71.26
2018-12-27T12:01:43.310Z,71.23
2018-12-27T12:03:54.239Z,71.13
2018-12-27T12:06:05.186Z,71.12
2018-12-27T12:08:16.129Z,70.95
2018-12-27T12:10:27.101Z,70.82
2018-12-27T12:12:38.034Z,70.79
2018-12-27T12:14:48.998Z,70.45
2018-12-27T12:16:59.915Z,70.62
2018-12-27T12:19:10.947Z,70.89
2018-12-27T12:21:21.904Z,72.24
2018-12-27T12:23:32.850Z,79.63
2018-12-27T12:25:43.825Z,75.22
2018-12-27T12:27:54.747Z,72.82
2018-12-27T12:30:47.338Z,71.64
2018-12-27T12:32:58.300Z,71.05
2018-12-27T12:35:29.123Z,70.79
2018-12-27T12:37:40.183Z,70.75
2018-12-27T12:39:51.113Z,70.85
2018-12-27T12:42:08.794Z,70.88
2018-12-27T12:44:19.709Z,71.01
2018-12-27T12:46:30.685Z,71.32
2018-12-27T12:48:41.643Z,71.63
2018-12-27T12:50:52.603Z,71.67
2018-12-27T12:53:03.534Z,71.86
2018-12-27T12:55:14.458Z,72.01
2018-12-27T12:57:45.277Z,72.34
2018-12-27T12:59:56.229Z,72.34
2018-12-27T13:02:07.158Z,72.22
2018-12-27T13:04:18.128Z,71.62
2018-12-27T13:06:29.084Z,71.69
2018-12-27T13:08:40.009Z,71.45
2018-12-27T13:10:50.974Z,71.49
2018-12-27T13:13:01.920Z,71.85
2018-12-27T13:15:12.831Z,72.40
2018-12-27T13:17:23.875Z,72.95
2018-12-27T13:19:34.820Z,72.97
2018-12-27T13:21:45.738Z,72.86
2018-12-27T13:23:56.707Z,73.23
2018-12-27T13:26:07.646Z,73.38
2018-12-27T13:28:18.594Z,73.33
2018-12-27T13:30:29.563Z,73.36
2018-12-27T13:32:40.518Z,81.90
2018-12-27T13:34:51.474Z,77.97
2018-12-27T13:37:02.414Z,74.25
2018-12-27T13:39:13.346Z,73.12
2018-12-27T13:41:24.316Z,73.40
2018-12-27T13:43:35.270Z,74.00
2018-12-27T13:45:46.219Z,74.13
2018-12-27T13:47:57.137Z,74.06
2018-12-27T13:50:08.092Z,74.23
2018-12-27T13:52:19.033Z,74.26
2018-12-27T13:54:29.978Z,74.29
2018-12-27T13:56:40.916Z,74.38
2018-12-27T13:58:51.907Z,74.30
2018-12-27T14:01:02.885Z,74.25
2018-12-27T14:03:13.806Z,74.09
2018-12-27T14:05:24.749Z,74.01
2018-12-27T14:07:35.684Z,74.20
2018-12-27T14:09:46.618Z,74.45
2018-12-27T14:11:57.574Z,74.28
2018-12-27T14:14:08.527Z,74.49
2018-12-27T14:16:19.589Z,74.84
2018-12-27T14:18:30.523Z,75.09
2018-12-27T14:20:41.467Z,75.17
2018-12-27T14:22:52.418Z,75.33
2018-12-27T14:25:03.436Z,75.46
2018-12-27T14:27:14.371Z,75.49
2018-12-27T14:29:25.317Z,75.45
2018-12-27T14:31:36.251Z,75.61
2018-12-27T14:33:47.154Z,75.58
2018-12-27T14:35:58.170Z,75.41
2018-12-27T14:38:09.110Z,75.38
2018-12-27T14:40:20.057Z,75.29
2018-12-27T14:42:30.990Z,75.46
2018-12-27T14:44:41.912Z,75.73
2018-12-27T14:46:52.867Z,76.00
2018-12-27T14:49:03.807Z,76.14
2018-12-27T14:51:14.760Z,76.27
2018-12-27T14:53:25.698Z,76.05
2018-12-27T14:55:36.646Z,76.07
2018-12-27T14:58:07.493Z,76.16
2018-12-27T15:00:18.633Z,76.20
2018-12-27T15:02:29.614Z,76.21
2018-12-27T15:04:40.573Z,76.09
2018-12-27T15:06:51.484Z,76.15
2018-12-27T15:09:44.078Z,76.22
2018-12-27T15:11:55.028Z,76.35
2018-12-27T15:14:06.092Z,76.54
2018-12-27T15:16:17.026Z,76.65
2018-12-27T15:18:27.986Z,76.83
2018-12-27T15:20:38.938Z,76.96
2018-12-27T15:22:49.873Z,77.14
2018-12-27T15:25:00.806Z,77.25
2018-12-27T15:27:11.774Z,77.37
2018-12-27T15:29:22.830Z,77.36
2018-12-27T15:31:33.754Z,77.40
2018-12-27T15:33:44.703Z,77.43
2018-12-27T15:35:55.642Z,84.90
2018-12-27T15:38:06.568Z,85.11
2018-12-27T15:40:17.519Z,79.66
2018-12-27T15:42:28.441Z,76.56
2018-12-27T15:44:39.432Z,75.95
2018-12-27T15:46:50.329Z,76.38
2018-12-27T15:49:01.280Z,76.26
2018-12-27T15:51:12.222Z,76.40
2018-12-27T15:53:23.151Z,76.67
2018-12-27T15:55:34.177Z,76.89
2018-12-27T15:57:45.071Z,77.15
2018-12-27T15:59:56.035Z,77.28
2018-12-27T16:02:06.986Z,77.37
2018-12-27T16:04:18.015Z,77.52
2018-12-27T16:06:28.963Z,77.68
2018-12-27T16:08:39.913Z,77.79
2018-12-27T16:10:50.871Z,77.84
2018-12-27T16:13:01.830Z,77.90
2018-12-27T16:15:12.762Z,77.95
2018-12-27T16:17:23.703Z,78.11
2018-12-27T16:19:34.661Z,78.21
2018-12-27T16:21:45.638Z,78.34
2018-12-27T16:23:56.595Z,78.49
2018-12-27T16:26:07.564Z,78.65
2018-12-27T16:28:18.511Z,78.71
2018-12-27T16:31:11.099Z,78.85
2018-12-27T16:33:22.026Z,78.94
2018-12-27T16:35:32.952Z,79.08
2018-12-27T16:37:43.958Z,79.34
2018-12-27T16:39:54.892Z,79.62
2018-12-27T16:42:05.937Z,79.79
2018-12-27T16:44:16.888Z,80.00
2018-12-27T16:46:27.829Z,80.26
2018-12-27T16:48:38.803Z,80.47
2018-12-27T16:50:49.770Z,80.57
2018-12-27T16:53:00.740Z,80.60
2018-12-27T16:55:11.670Z,80.73
2018-12-27T16:57:22.593Z,80.85
2018-12-27T16:59:33.619Z,80.93
2018-12-27T17:01:44.566Z,81.18
2018-12-27T17:03:55.567Z,81.22
2018-12-27T17:06:06.501Z,81.47
2018-12-27T17:08:17.469Z,81.73
2018-12-27T17:10:28.378Z,81.80
2018-12-27T17:12:39.331Z,81.86
2018-12-27T17:14:50.298Z,81.90
2018-12-27T17:17:01.230Z,81.99
2018-12-27T17:19:12.214Z,82.14
2018-12-27T17:21:23.138Z,82.15
2018-12-27T17:23:34.156Z,82.13
2018-12-27T17:25:45.068Z,82.17
2018-12-27T17:27:55.995Z,82.29
2018-12-27T17:30:48.630Z,82.39
2018-12-27T17:32:59.545Z,82.46
2018-12-27T17:35:10.517Z,82.51
2018-12-27T17:37:23.443Z,82.49
2018-12-27T17:39:34.345Z,82.52
2018-12-27T17:41:45.303Z,82.52
2018-12-27T17:43:56.242Z,82.56
2018-12-27T17:46:07.200Z,82.54
2018-12-27T17:48:18.175Z,82.56
2018-12-27T17:50:29.182Z,82.59
2018-12-27T17:52:40.096Z,82.52
2018-12-27T17:54:51.012Z,82.42
2018-12-27T17:57:01.965Z,82.45
2018-12-27T17:59:12.936Z,82.53
2018-12-27T18:01:23.916Z,82.59
2018-12-27T18:03:34.838Z,82.64
2018-12-27T18:05:45.862Z,82.69
2018-12-27T18:07:56.800Z,82.70
2018-12-27T18:10:07.743Z,82.66
2018-12-27T18:12:18.712Z,82.69
2018-12-27T18:14:29.648Z,82.72
2018-12-27T18:16:40.636Z,82.82
2018-12-27T18:18:51.565Z,82.88
2018-12-27T18:21:02.530Z,82.95
2018-12-27T18:23:13.450Z,83.04
2018-12-27T18:25:24.394Z,83.09
2018-12-27T18:27:35.344Z,83.09
2018-12-27T18:29:46.261Z,83.17
2018-12-27T18:31:57.227Z,83.27
2018-12-27T18:34:08.177Z,83.49
2018-12-27T18:36:19.101Z,83.66
2018-12-27T18:38:30.059Z,83.65
2018-12-27T18:40:41.019Z,83.64
2018-12-27T18:42:51.978Z,83.66
2018-12-27T18:45:44.545Z,83.69
2018-12-27T18:47:55.506Z,83.77
2018-12-27T18:50:06.589Z,83.89
2018-12-27T18:52:17.545Z,83.95
2018-12-27T18:54:28.479Z,83.92
2018-12-27T18:56:39.423Z,83.91
2018-12-27T18:58:50.356Z,83.94
2018-12-27T19:01:01.398Z,83.95
2018-12-27T19:03:12.374Z,84.00
2018-12-27T19:05:23.411Z,84.12
2018-12-27T19:07:34.371Z,84.23
2018-12-27T19:09:45.421Z,84.25
2018-12-27T19:12:36.097Z,84.39
2018-12-27T19:15:28.706Z,84.46
2018-12-27T19:18:21.312Z,84.35
2018-12-27T19:21:13.887Z,84.19
2018-12-27T19:23:25.073Z,84.28
2018-12-27T19:25:36.006Z,84.35
2018-12-27T19:27:46.941Z,84.38
2018-12-27T19:29:58.021Z,84.40
2018-12-27T19:32:08.920Z,84.43
2018-12-27T19:34:19.916Z,84.44
2018-12-27T19:36:30.847Z,84.42
2018-12-27T19:38:41.777Z,84.40
2018-12-27T19:40:52.755Z,84.37
2018-12-27T19:43:03.779Z,84.37
2018-12-27T19:45:14.879Z,84.41
2018-12-27T19:47:25.828Z,84.46
2018-12-27T19:49:36.801Z,84.46
2018-12-27T19:51:47.756Z,84.39
2018-12-27T19:56:31.116Z,84.35
2018-12-27T19:58:42.050Z,84.58
2018-12-27T20:00:53.026Z,84.54
2018-12-27T20:03:03.971Z,84.45
2018-12-27T20:05:14.935Z,84.48
2018-12-27T20:07:25.979Z,84.50
2018-12-27T20:09:36.908Z,84.45
2018-12-27T20:11:47.919Z,84.23
2018-12-27T20:13:58.946Z,84.16
2018-12-27T20:16:09.914Z,84.06
2018-12-27T20:18:20.860Z,84.19
2018-12-27T20:20:31.878Z,84.40
2018-12-27T20:23:24.537Z,84.64
2018-12-27T20:25:35.494Z,84.86
2018-12-27T20:27:46.453Z,84.96
2018-12-27T20:29:57.375Z,84.94
2018-12-27T20:32:08.316Z,84.90
2018-12-27T20:34:19.227Z,84.80
2018-12-27T20:36:30.192Z,84.74
2018-12-27T20:38:41.166Z,84.74
2018-12-27T20:40:52.119Z,84.66
2018-12-27T20:43:03.118Z,84.67
2018-12-27T20:45:14.091Z,84.75
2018-12-27T20:47:25.062Z,84.83
2018-12-27T20:49:36.015Z,84.80
2018-12-27T20:51:46.922Z,85.00
2018-12-27T20:53:57.932Z,85.01
2018-12-27T20:56:08.872Z,84.92
2018-12-27T20:58:19.827Z,84.90
2018-12-27T21:00:30.767Z,84.92
2018-12-27T21:02:41.816Z,84.89
2018-12-27T21:04:52.749Z,84.97
2018-12-27T21:07:03.700Z,85.05
2018-12-27T21:09:14.665Z,85.09
2018-12-27T21:11:25.585Z,85.08
2018-12-27T21:13:36.563Z,85.20
2018-12-27T21:15:47.506Z,85.33
2018-12-27T21:17:58.443Z,85.41
2018-12-27T21:20:09.515Z,85.54
2018-12-27T21:22:20.471Z,85.50
2018-12-27T21:24:31.416Z,85.46
2018-12-27T21:26:42.330Z,85.39
2018-12-27T21:28:53.282Z,85.35
2018-12-27T21:31:04.240Z,85.28
2018-12-27T21:33:15.185Z,85.26
2018-12-27T21:35:26.143Z,85.21
2018-12-27T21:37:37.099Z,85.21
2018-12-27T21:39:48.045Z,85.15
2018-12-27T21:41:58.971Z,85.06
2018-12-27T21:44:09.902Z,84.93
2018-12-27T21:46:20.927Z,84.92
2018-12-27T21:48:31.852Z,84.89
2018-12-27T21:50:42.818Z,84.85
2018-12-27T21:52:53.756Z,84.84
2018-12-27T21:55:04.745Z,84.77
2018-12-27T21:57:15.734Z,84.71
2018-12-27T21:59:26.674Z,88.25
2018-12-27T22:01:37.680Z,88.07
2018-12-27T22:03:48.639Z,86.97
2018-12-27T22:05:59.630Z,86.12
2018-12-27T22:08:10.558Z,85.07
2018-12-27T22:10:21.489Z,84.72
2018-12-27T22:12:32.442Z,84.54
2018-12-27T22:14:43.361Z,84.31
2018-12-27T22:16:54.301Z,84.10
2018-12-27T22:19:05.273Z,84.08
2018-12-27T22:21:16.215Z,83.93
2018-12-27T22:23:27.164Z,83.88
2018-12-27T22:25:38.118Z,83.75
2018-12-27T22:27:49.066Z,83.76
2018-12-27T22:29:59.998Z,83.63
2018-12-27T22:32:10.935Z,83.66
2018-12-27T22:34:21.893Z,83.77
2018-12-27T22:36:32.838Z,83.94
2018-12-27T22:38:43.786Z,83.97
2018-12-27T22:40:54.777Z,84.10
2018-12-27T22:43:05.721Z,84.25
2018-12-27T22:45:16.673Z,84.36
2018-12-27T22:47:27.595Z,84.42
2018-12-27T22:49:38.553Z,84.44
2018-12-27T22:51:49.509Z,84.43
2018-12-27T22:54:00.475Z,84.58
2018-12-27T22:56:11.421Z,84.72
2018-12-27T22:58:22.446Z,84.76
2018-12-27T23:02:52.234Z,84.80
2018-12-27T23:05:44.842Z,84.89
2018-12-27T23:07:55.788Z,85.16
2018-12-27T23:10:06.825Z,85.34
2018-12-27T23:12:17.858Z,85.49
2018-12-27T23:14:28.793Z,85.55
2018-12-27T23:16:39.721Z,85.70
2018-12-27T23:23:59.821Z,85.58
2018-12-27T23:26:10.776Z,85.54
2018-12-27T23:28:21.814Z,85.55
2018-12-27T23:30:32.740Z,85.57
2018-12-27T23:32:43.677Z,85.59
2018-12-27T23:34:54.619Z,85.70
2018-12-27T23:37:05.570Z,85.78
2018-12-27T23:39:16.485Z,85.76
2018-12-27T23:41:27.422Z,85.70
2018-12-27T23:43:38.340Z,85.71
2018-12-27T23:45:49.301Z,85.84
2018-12-27T23:48:00.232Z,85.92
2018-12-27T23:50:11.162Z,86.02
2018-12-27T23:52:22.095Z,86.06
2018-12-27T23:54:33.037Z,86.10
2018-12-27T23:56:44.000Z,86.34
2018-12-27T23:58:54.997Z,86.47
